Time;durP1;ratioP1;P1;durP2;ratioP2;P2;SDS_P1;SDS_P2;PMS_P1;PMS_P2;Temp;Humidity;BMP_temperature;BMP_pressure;BME280_temperature;BME280_humidity;BME280_pressure;Samples;Min_cycle;Max_cycle;Signal;HPM_P1;HPM_P2
2022/12/24 00:01:18;;;;;;;20.02;13.73;;;7.90;99.90;;;;;;5051610;28;20037;-66
2022/12/24 00:03:43;;;;;;;18.17;13.23;;;7.90;99.90;;;;;;5055152;28;20104;-66
2022/12/24 00:06:16;;;;;;;16.48;12.57;;;8.00;99.90;;;;;;5055054;28;20064;-66
2022/12/24 00:08:42;;;;;;;19.88;13.00;;;8.00;99.90;;;;;;5055226;28;20078;-66
2022/12/24 00:11:08;;;;;;;19.15;10.75;;;8.00;99.90;;;;;;5054645;28;20040;-66
2022/12/24 00:13:34;;;;;;;13.00;9.77;;;8.10;99.90;;;;;;5055142;28;20037;-67
2022/12/24 00:16:00;;;;;;;10.10;6.50;;;8.20;99.90;;;;;;5055052;28;20032;-69
2022/12/24 00:18:26;;;;;;;8.32;4.40;;;8.40;99.90;;;;;;5055334;28;20442;-66
2022/12/24 00:20:52;;;;;;;3.40;2.38;;;8.80;99.90;;;;;;5055448;28;20047;-66
2022/12/24 00:23:18;;;;;;;5.90;1.80;;;9.20;99.90;;;;;;5054438;28;20417;-66
2022/12/24 00:25:44;;;;;;;1.48;1.20;;;9.50;99.90;;;;;;5054687;28;20118;-66
2022/12/24 00:28:10;;;;;;;1.52;0.85;;;9.90;99.90;;;;;;5054447;28;20159;-66
2022/12/24 00:30:41;;;;;;;1.92;0.90;;;10.20;99.90;;;;;;5054925;28;20107;-66
2022/12/24 00:33:07;;;;;;;1.37;0.70;;;10.50;99.90;;;;;;5054616;28;20376;-66
2022/12/24 00:35:34;;;;;;;1.73;0.70;;;10.60;99.90;;;;;;5054847;28;20030;-66
2022/12/24 00:37:59;;;;;;;2.38;0.88;;;10.70;99.90;;;;;;5054706;28;20046;-66
2022/12/24 00:40:25;;;;;;;0.80;0.70;;;10.80;99.90;;;;;;5054345;28;20033;-66
2022/12/24 00:42:51;;;;;;;1.45;0.80;;;10.90;99.90;;;;;;5054435;28;20100;-66
2022/12/24 00:45:17;;;;;;;1.17;0.65;;;11.00;99.90;;;;;;5054318;28;20025;-66
2022/12/24 00:47:42;;;;;;;1.08;0.73;;;11.00;99.90;;;;;;5054850;28;20065;-66
2022/12/24 00:50:09;;;;;;;3.22;0.80;;;11.10;99.90;;;;;;5054734;28;20484;-67
2022/12/24 00:52:34;;;;;;;0.70;0.52;;;11.10;99.90;;;;;;5054800;28;20111;-66
2022/12/24 00:55:00;;;;;;;2.25;1.13;;;11.20;99.90;;;;;;5054496;28;20165;-66
2022/12/24 00:57:26;;;;;;;1.38;0.77;;;11.30;99.90;;;;;;5054070;28;20029;-66
2022/12/24 00:59:51;;;;;;;2.88;0.70;;;11.30;99.90;;;;;;5054753;28;20029;-66
2022/12/24 01:02:17;;;;;;;0.85;0.57;;;11.30;99.90;;;;;;5053821;28;20036;-66
2022/12/24 01:07:27;;;;;;;1.45;0.80;;;11.40;99.90;;;;;;5051746;28;20048;-66
2022/12/24 01:09:53;;;;;;;0.85;0.40;;;11.50;99.90;;;;;;5054306;28;20029;-66
2022/12/24 01:12:18;;;;;;;0.63;0.40;;;11.50;99.90;;;;;;5053778;28;20025;-66
2022/12/24 01:14:44;;;;;;;1.10;0.57;;;11.60;99.90;;;;;;5054132;28;20450;-66
2022/12/24 01:17:09;;;;;;;0.50;0.50;;;11.60;99.90;;;;;;5053681;28;20027;-66
2022/12/24 01:19:35;;;;;;;1.00;0.60;;;11.70;99.90;;;;;;5053943;28;20033;-66
2022/12/24 01:22:01;;;;;;;1.25;0.80;;;11.70;99.90;;;;;;5054073;28;20028;-66
2022/12/24 01:24:27;;;;;;;1.60;0.68;;;11.70;99.90;;;;;;5053502;28;20025;-66
2022/12/24 01:26:52;;;;;;;0.85;0.52;;;11.70;99.90;;;;;;5053937;28;20139;-66
2022/12/24 01:29:18;;;;;;;1.13;0.63;;;11.70;99.90;;;;;;5053440;28;20086;-66
2022/12/24 01:31:44;;;;;;;1.17;0.60;;;11.70;99.90;;;;;;5053734;28;20032;-66
2022/12/24 01:34:10;;;;;;;0.75;0.45;;;11.60;99.90;;;;;;5053058;28;20040;-67
2022/12/24 01:36:35;;;;;;;0.63;0.50;;;11.60;99.90;;;;;;5053759;28;20025;-66
2022/12/24 01:39:01;;;;;;;1.20;0.70;;;11.60;99.90;;;;;;5053827;28;20055;-66
2022/12/24 01:44:27;;;;;;;2.13;0.80;;;11.60;99.90;;;;;;5053306;28;20044;-66
2022/12/24 01:47:20;;;;;;;0.73;0.55;;;11.60;99.90;;;;;;5053649;28;20025;-66
2022/12/24 01:50:15;;;;;;;1.15;0.52;;;11.60;99.90;;;;;;5053608;28;20028;-66
2022/12/24 01:52:41;;;;;;;0.93;0.65;;;11.60;99.90;;;;;;5053485;28;20087;-66
2022/12/24 01:55:12;;;;;;;1.70;0.60;;;11.60;99.90;;;;;;5052957;28;20021;-68
2022/12/24 01:57:44;;;;;;;1.17;0.68;;;11.60;99.90;;;;;;5053316;28;20029;-66
2022/12/24 02:00:12;;;;;;;0.95;0.50;;;11.70;99.90;;;;;;5052882;28;20033;-67
2022/12/24 02:02:40;;;;;;;1.33;0.55;;;11.70;99.90;;;;;;5053130;28;20079;-66
2022/12/24 02:05:28;;;;;;;1.10;0.60;;;11.70;99.90;;;;;;5052847;28;20111;-66
2022/12/24 02:07:55;;;;;;;1.23;0.60;;;11.70;99.90;;;;;;5053098;28;20039;-66
2022/12/24 02:10:21;;;;;;;0.30;0.30;;;11.70;99.90;;;;;;5052550;28;20029;-66
2022/12/24 02:12:48;;;;;;;0.43;0.30;;;11.80;99.90;;;;;;5052978;28;20056;-66
2022/12/24 02:15:17;;;;;;;1.48;0.50;;;11.80;99.90;;;;;;5052215;28;20535;-66
2022/12/24 02:18:17;;;;;;;1.27;0.30;;;11.80;99.90;;;;;;5052912;28;20024;-66
2022/12/24 02:21:01;;;;;;;0.50;0.35;;;11.90;99.90;;;;;;5053072;28;20470;-66
2022/12/24 02:23:37;;;;;;;1.13;0.47;;;11.90;99.90;;;;;;5052515;28;20094;-66
2022/12/24 02:26:42;;;;;;;0.43;0.32;;;11.90;99.90;;;;;;5052621;28;20071;-66
2022/12/24 02:29:22;;;;;;;0.68;0.40;;;11.90;99.90;;;;;;5052462;28;20159;-66
2022/12/24 02:31:57;;;;;;;0.85;0.45;;;11.80;99.90;;;;;;5052809;28;20036;-67
2022/12/24 02:34:41;;;;;;;0.47;0.38;;;11.80;99.90;;;;;;5052113;28;20024;-66
2022/12/24 02:37:20;;;;;;;2.33;0.40;;;11.80;99.90;;;;;;5052209;28;20485;-66
2022/12/24 02:39:53;;;;;;;0.30;0.30;;;11.90;99.90;;;;;;5052649;28;20048;-66
2022/12/24 02:42:24;;;;;;;1.00;0.40;;;11.90;99.90;;;;;;5052203;28;20036;-66
2022/12/24 02:44:55;;;;;;;0.40;0.40;;;11.90;99.90;;;;;;5052581;28;20021;-66
2022/12/24 02:47:24;;;;;;;0.50;0.30;;;11.90;99.90;;;;;;5052190;28;20029;-66
2022/12/24 02:49:50;;;;;;;3.40;0.38;;;11.90;99.90;;;;;;5052273;28;20033;-66
2022/12/24 02:52:38;;;;;;;0.77;0.30;;;11.90;99.90;;;;;;5052119;28;20032;-67
2022/12/24 02:55:09;;;;;;;0.30;0.30;;;11.80;99.90;;;;;;5052400;28;20099;-66
2022/12/24 02:58:00;;;;;;;0.30;0.30;;;11.80;99.90;;;;;;5052026;28;20494;-66
2022/12/24 03:00:30;;;;;;;1.30;0.40;;;11.80;99.90;;;;;;5052105;28;20040;-66
2022/12/24 03:03:17;;;;;;;0.28;0.28;;;11.80;99.90;;;;;;5052390;28;20025;-66
2022/12/24 03:05:55;;;;;;;1.40;0.30;;;11.80;99.90;;;;;;5052437;28;20068;-66
2022/12/24 03:08:47;;;;;;;0.40;0.40;;;11.80;99.90;;;;;;5051672;28;20111;-65
2022/12/24 03:11:14;;;;;;;1.17;0.50;;;11.80;99.90;;;;;;5051531;28;20470;-65
2022/12/24 03:13:41;;;;;;;0.40;0.40;;;11.80;99.90;;;;;;5051659;28;20021;-66
2022/12/24 03:16:11;;;;;;;1.23;0.63;;;11.90;99.90;;;;;;5052215;28;20044;-65
2022/12/24 03:18:39;;;;;;;0.70;0.45;;;11.80;99.90;;;;;;5051385;28;20359;-65
2022/12/24 03:21:26;;;;;;;1.52;1.05;;;11.80;99.90;;;;;;5052177;28;20086;-66
2022/12/24 03:23:53;;;;;;;1.58;0.50;;;11.80;99.90;;;;;;5052037;28;20408;-65
2022/12/24 03:26:19;;;;;;;0.82;0.80;;;11.80;99.90;;;;;;5051817;28;20025;-66
2022/12/24 03:28:46;;;;;;;2.70;0.55;;;11.80;99.90;;;;;;5052179;28;20500;-66
2022/12/24 03:31:13;;;;;;;0.32;0.30;;;11.80;99.90;;;;;;5052069;28;20051;-66
2022/12/24 03:33:39;;;;;;;0.77;0.50;;;11.70;99.90;;;;;;5051597;28;20027;-66
2022/12/24 03:36:05;;;;;;;0.90;0.50;;;11.80;99.90;;;;;;5052058;28;20103;-66
2022/12/24 03:38:31;;;;;;;0.85;0.60;;;11.70;99.90;;;;;;5054590;28;20127;-66
2022/12/24 03:40:57;;;;;;;0.85;0.60;;;11.70;99.90;;;;;;5055992;28;20116;-66
2022/12/24 03:43:22;;;;;;;1.15;0.40;;;11.70;99.90;;;;;;5055448;28;20025;-67
2022/12/24 03:45:48;;;;;;;0.93;0.60;;;11.70;99.90;;;;;;5055714;28;20108;-67
2022/12/24 03:48:14;;;;;;;1.92;0.68;;;11.80;99.90;;;;;;5055660;28;20028;-66
2022/12/24 03:50:39;;;;;;;1.00;0.60;;;11.70;99.90;;;;;;5055700;28;20032;-66
2022/12/24 03:53:05;;;;;;;1.17;0.60;;;11.80;99.90;;;;;;5055591;28;20036;-66
2022/12/24 03:55:31;;;;;;;0.60;0.50;;;11.80;99.90;;;;;;5054981;28;20108;-65
2022/12/24 03:57:56;;;;;;;2.60;0.60;;;11.80;99.90;;;;;;5055784;28;20068;-66
2022/12/24 04:00:22;;;;;;;2.58;0.60;;;11.80;99.90;;;;;;5055110;28;20071;-66
2022/12/24 04:02:48;;;;;;;0.73;0.60;;;11.80;99.90;;;;;;5055411;28;20082;-65
2022/12/24 04:05:16;;;;;;;2.58;0.68;;;11.80;99.90;;;;;;5055407;28;20049;-66
2022/12/24 04:07:42;;;;;;;0.88;0.68;;;11.80;99.90;;;;;;5055073;28;20469;-67
2022/12/24 04:10:09;;;;;;;2.25;0.50;;;11.90;99.90;;;;;;5055216;28;20040;-66
2022/12/24 04:12:35;;;;;;;1.20;0.60;;;11.90;99.90;;;;;;5054589;28;20439;-65
2022/12/24 04:15:00;;;;;;;1.88;0.90;;;11.80;99.90;;;;;;5055489;28;20041;-66
2022/12/24 04:17:26;;;;;;;2.00;0.85;;;11.80;99.90;;;;;;5054778;28;20071;-66
2022/12/24 04:19:52;;;;;;;1.88;0.70;;;11.80;99.90;;;;;;5054970;28;20097;-66
2022/12/24 04:22:18;;;;;;;1.25;0.50;;;11.70;99.90;;;;;;5054751;28;20033;-67
2022/12/24 04:24:43;;;;;;;1.27;0.52;;;11.80;99.90;;;;;;5054372;28;20096;-67
2022/12/24 04:27:09;;;;;;;2.05;0.52;;;11.80;99.90;;;;;;5055107;28;20106;-66
2022/12/24 04:29:34;;;;;;;1.42;0.90;;;11.70;99.90;;;;;;5054529;28;20095;-66
2022/12/24 04:32:00;;;;;;;3.30;0.60;;;11.70;99.90;;;;;;5054909;28;20025;-66
2022/12/24 04:34:26;;;;;;;1.80;0.70;;;11.70;99.90;;;;;;5054485;28;20025;-67
2022/12/24 04:36:52;;;;;;;2.42;0.60;;;11.70;99.90;;;;;;5054720;28;20031;-67
2022/12/24 04:39:18;;;;;;;0.73;0.70;;;11.70;99.90;;;;;;5054710;28;20059;-66
2022/12/24 04:41:43;;;;;;;1.92;1.02;;;11.70;99.90;;;;;;5054597;28;20124;-67
2022/12/24 04:44:09;;;;;;;1.23;0.60;;;11.70;99.90;;;;;;5054657;28;20112;-67
2022/12/24 04:46:35;;;;;;;1.20;0.50;;;11.60;99.90;;;;;;5054244;28;20484;-67
2022/12/24 04:49:01;;;;;;;0.95;0.60;;;11.70;99.90;;;;;;5053831;28;20112;-66
2022/12/24 04:51:27;;;;;;;1.67;0.60;;;11.60;99.90;;;;;;5053890;28;20025;-67
2022/12/24 04:53:54;;;;;;;2.47;0.60;;;11.60;99.90;;;;;;5054686;28;20025;-67
2022/12/24 04:56:23;;;;;;;1.30;0.60;;;11.60;99.90;;;;;;5054222;28;20021;-69
2022/12/24 04:58:49;;;;;;;0.80;0.50;;;11.60;99.90;;;;;;5054317;28;20379;-67
2022/12/24 05:01:24;;;;;;;2.85;0.80;;;11.60;99.90;;;;;;5054463;28;20040;-67
2022/12/24 05:03:50;;;;;;;1.52;0.70;;;11.60;99.90;;;;;;5054345;28;20116;-67
2022/12/24 05:06:19;;;;;;;1.85;0.70;;;11.60;99.90;;;;;;5053830;28;20104;-67
2022/12/24 05:08:45;;;;;;;1.95;0.70;;;11.60;99.90;;;;;;5053727;28;20056;-67
2022/12/24 05:11:13;;;;;;;2.10;0.70;;;11.60;99.90;;;;;;5054144;28;20029;-67
2022/12/24 05:13:40;;;;;;;2.15;0.70;;;11.60;99.90;;;;;;5053547;28;20112;-67
2022/12/24 05:16:06;;;;;;;2.65;0.77;;;11.50;99.90;;;;;;5053943;28;20175;-67
2022/12/24 05:18:32;;;;;;;1.08;0.70;;;11.50;99.90;;;;;;5053559;28;20033;-67
2022/12/24 05:20:57;;;;;;;1.77;0.80;;;11.50;99.90;;;;;;5053643;28;20056;-67
2022/12/24 05:26:28;;;;;;;1.50;0.65;;;11.50;99.90;;;;;;5053977;28;20059;-67
2022/12/24 05:28:56;;;;;;;2.33;0.60;;;11.50;99.90;;;;;;5053786;28;20032;-67
2022/12/24 05:31:24;;;;;;;2.80;0.60;;;11.50;99.90;;;;;;5053723;28;20461;-69
2022/12/24 05:33:50;;;;;;;0.80;0.63;;;11.40;99.90;;;;;;5053786;28;20021;-67
2022/12/24 05:36:16;;;;;;;2.05;0.68;;;11.50;99.90;;;;;;5053703;28;20029;-67
2022/12/24 05:38:42;;;;;;;2.38;0.77;;;11.40;99.90;;;;;;5053161;28;20052;-67
2022/12/24 05:41:08;;;;;;;1.60;0.68;;;11.40;99.90;;;;;;5053443;28;20363;-67
2022/12/24 05:43:35;;;;;;;1.08;0.70;;;11.40;99.90;;;;;;5053018;28;20111;-67
2022/12/24 05:46:02;;;;;;;2.67;0.75;;;11.40;99.90;;;;;;5053758;28;20029;-68
2022/12/24 05:48:28;;;;;;;2.08;0.77;;;11.40;99.90;;;;;;5052762;28;20036;-67
2022/12/24 05:50:55;;;;;;;1.98;0.82;;;11.40;99.90;;;;;;5053395;28;20505;-67
2022/12/24 05:53:21;;;;;;;3.22;0.88;;;11.40;99.90;;;;;;5053000;28;20025;-67
2022/12/24 05:55:47;;;;;;;5.75;0.70;;;11.40;99.90;;;;;;5052555;28;20492;-67
2022/12/24 05:58:13;;;;;;;5.90;1.52;;;11.40;99.90;;;;;;5053252;28;20033;-67
2022/12/24 06:00:38;;;;;;;1.92;0.93;;;11.40;99.90;;;;;;5052069;28;20072;-67
2022/12/24 06:03:04;;;;;;;1.55;0.70;;;11.40;99.90;;;;;;5053133;28;20461;-67
2022/12/24 06:05:30;;;;;;;3.13;0.80;;;11.40;99.90;;;;;;5052483;28;20029;-67
2022/12/24 06:07:55;;;;;;;2.30;0.75;;;11.40;99.90;;;;;;5053067;28;20021;-67
2022/12/24 06:10:21;;;;;;;5.00;1.13;;;11.40;99.90;;;;;;5053094;28;20047;-67
2022/12/24 06:12:47;;;;;;;5.55;1.02;;;11.40;99.90;;;;;;5052572;28;20032;-67
2022/12/24 06:15:13;;;;;;;1.75;0.85;;;11.40;99.90;;;;;;5052876;28;20021;-67
2022/12/24 06:17:38;;;;;;;2.50;0.73;;;11.40;99.90;;;;;;5052498;28;20100;-67
2022/12/24 06:20:04;;;;;;;1.40;0.80;;;11.40;99.90;;;;;;5052851;28;20082;-67
2022/12/24 06:22:30;;;;;;;2.38;0.90;;;11.40;99.90;;;;;;5052292;28;20025;-67
2022/12/24 06:24:56;;;;;;;3.00;1.02;;;11.40;99.90;;;;;;5052699;28;20104;-67
2022/12/24 06:27:21;;;;;;;1.33;0.60;;;11.40;99.90;;;;;;5052444;28;20021;-67
2022/12/24 06:29:47;;;;;;;3.08;0.70;;;11.40;99.90;;;;;;5052079;28;20033;-67
2022/12/24 06:32:12;;;;;;;3.70;0.80;;;11.40;99.90;;;;;;5052582;28;20531;-67
2022/12/24 06:34:38;;;;;;;2.83;0.75;;;11.40;99.90;;;;;;5052009;28;20481;-67
2022/12/24 06:37:05;;;;;;;2.38;0.88;;;11.40;99.90;;;;;;5052516;28;20060;-67
2022/12/24 06:39:30;;;;;;;3.03;1.10;;;11.40;99.90;;;;;;5052100;28;20079;-67
2022/12/24 06:41:56;;;;;;;2.22;0.70;;;11.30;99.90;;;;;;5052312;28;20025;-67
2022/12/24 06:44:22;;;;;;;1.83;0.60;;;11.30;99.90;;;;;;5052764;28;20111;-67
2022/12/24 06:46:47;;;;;;;4.00;0.82;;;11.30;99.90;;;;;;5051628;28;20476;-67
2022/12/24 06:49:13;;;;;;;1.40;0.65;;;11.30;99.90;;;;;;5052239;28;20025;-67
2022/12/24 06:51:39;;;;;;;1.92;0.70;;;11.20;99.90;;;;;;5051801;28;20028;-67
2022/12/24 06:54:04;;;;;;;2.38;0.73;;;11.20;99.90;;;;;;5052228;28;20378;-67
2022/12/24 06:56:30;;;;;;;2.60;0.70;;;11.20;99.90;;;;;;5051493;28;20083;-67
2022/12/24 06:58:55;;;;;;;4.50;0.80;;;11.20;99.90;;;;;;5052008;28;20047;-67
2022/12/24 07:01:23;;;;;;;2.13;0.90;;;11.20;99.90;;;;;;5052183;28;20144;-67
2022/12/24 07:03:49;;;;;;;2.17;0.90;;;11.20;99.90;;;;;;5051454;28;20021;-67
2022/12/24 07:06:25;;;;;;;2.85;1.23;;;11.10;99.90;;;;;;5052334;28;20029;-67
2022/12/24 07:08:51;;;;;;;3.75;0.95;;;11.10;99.90;;;;;;5051999;28;20087;-66
2022/12/24 07:11:17;;;;;;;2.75;1.33;;;11.10;99.80;;;;;;5053712;28;20029;-66
2022/12/24 07:13:43;;;;;;;1.85;0.70;;;11.10;99.70;;;;;;5055486;28;20112;-66
2022/12/24 07:16:09;;;;;;;2.22;0.80;;;11.10;99.60;;;;;;5055783;28;20059;-66
2022/12/24 07:18:35;;;;;;;3.13;0.88;;;11.10;99.60;;;;;;5055605;28;20465;-66
2022/12/24 07:21:05;;;;;;;2.38;1.08;;;11.10;99.70;;;;;;5056052;28;20128;-66
2022/12/24 07:23:31;;;;;;;2.90;0.88;;;11.10;99.70;;;;;;5055697;28;20047;-66
2022/12/24 07:26:02;;;;;;;4.45;1.00;;;11.10;99.50;;;;;;5056068;28;20033;-66
2022/12/24 07:28:28;;;;;;;1.55;0.80;;;11.10;99.80;;;;;;5055728;28;20557;-67
2022/12/24 07:30:55;;;;;;;2.15;1.00;;;11.10;99.80;;;;;;5055396;28;20055;-67
2022/12/24 07:33:20;;;;;;;3.72;0.80;;;11.10;99.90;;;;;;5055617;28;20036;-67
2022/12/24 07:35:46;;;;;;;2.70;1.13;;;11.10;99.90;;;;;;5055567;28;20025;-67
2022/12/24 07:38:12;;;;;;;3.00;1.17;;;11.10;99.90;;;;;;5055470;28;20398;-67
2022/12/24 07:40:37;;;;;;;2.47;0.80;;;11.10;99.90;;;;;;5055238;28;20496;-67
2022/12/24 07:43:03;;;;;;;4.53;1.00;;;11.00;99.90;;;;;;5055895;28;20029;-67
2022/12/24 07:45:29;;;;;;;2.45;1.05;;;11.00;99.90;;;;;;5055638;28;20350;-67
2022/12/24 07:47:54;;;;;;;6.68;1.35;;;11.00;99.90;;;;;;5055234;28;20070;-67
2022/12/24 07:50:20;;;;;;;3.47;1.08;;;10.90;99.90;;;;;;5055532;28;20029;-67
2022/12/24 07:52:46;;;;;;;4.03;1.10;;;10.90;99.90;;;;;;5055120;28;20021;-67
2022/12/24 07:55:11;;;;;;;4.55;1.10;;;10.80;99.90;;;;;;5055505;28;20037;-67
2022/12/24 07:57:37;;;;;;;4.47;1.25;;;10.80;99.90;;;;;;5054609;28;20032;-67
2022/12/24 08:00:03;;;;;;;3.53;1.27;;;10.80;99.90;;;;;;5055390;28;20107;-67
2022/12/24 08:02:30;;;;;;;2.28;0.95;;;10.80;99.90;;;;;;5055317;28;20112;-67
2022/12/24 08:04:55;;;;;;;2.25;1.00;;;10.90;99.90;;;;;;5054790;28;20061;-67
2022/12/24 08:07:21;;;;;;;3.90;1.27;;;10.90;99.90;;;;;;5055156;28;20480;-67
2022/12/24 08:09:46;;;;;;;4.43;1.10;;;10.90;99.90;;;;;;5055103;28;20465;-67
2022/12/24 08:12:12;;;;;;;3.28;1.10;;;10.90;99.90;;;;;;5055118;28;20385;-67
2022/12/24 08:14:39;;;;;;;3.28;1.25;;;10.90;99.90;;;;;;5054643;28;20120;-67
2022/12/24 08:17:04;;;;;;;2.08;1.02;;;11.00;99.90;;;;;;5054890;28;20028;-66
2022/12/24 08:19:30;;;;;;;2.92;1.10;;;11.00;99.90;;;;;;5055195;28;20029;-66
2022/12/24 08:21:55;;;;;;;4.57;1.20;;;11.10;99.90;;;;;;5054388;28;20108;-66
2022/12/24 08:24:21;;;;;;;4.63;1.00;;;11.10;99.90;;;;;;5053532;28;20095;-66
2022/12/24 08:26:47;;;;;;;2.38;1.00;;;11.10;99.90;;;;;;5054360;28;20025;-68
2022/12/24 08:29:12;;;;;;;3.75;1.58;;;11.10;99.90;;;;;;5055012;28;20413;-67
2022/12/24 08:31:38;;;;;;;3.33;1.27;;;11.10;99.90;;;;;;5054457;28;20029;-68
2022/12/24 08:34:05;;;;;;;2.30;0.93;;;11.10;99.90;;;;;;5054673;28;20040;-66
2022/12/24 08:36:32;;;;;;;2.05;1.00;;;11.00;99.90;;;;;;5054761;28;20031;-67
2022/12/24 08:38:58;;;;;;;4.18;1.15;;;11.10;99.90;;;;;;5053962;28;20059;-66
2022/12/24 08:41:24;;;;;;;2.78;0.80;;;11.10;99.90;;;;;;5054619;28;20021;-66
2022/12/24 08:43:49;;;;;;;6.15;1.42;;;11.00;99.90;;;;;;5054227;28;20024;-67
2022/12/24 08:46:15;;;;;;;5.13;0.90;;;11.10;99.90;;;;;;5054249;28;20052;-66
2022/12/24 08:48:41;;;;;;;4.38;1.50;;;11.00;99.90;;;;;;5054254;28;20394;-67
2022/12/24 08:51:11;;;;;;;3.97;1.30;;;11.00;99.90;;;;;;5054413;28;20029;-67
2022/12/24 08:53:37;;;;;;;4.43;1.17;;;11.10;99.90;;;;;;5054383;28;20035;-67
2022/12/24 08:56:05;;;;;;;2.97;1.45;;;11.10;99.90;;;;;;5053880;28;20067;-67
2022/12/24 08:58:30;;;;;;;2.95;1.13;;;11.10;99.90;;;;;;5054150;28;20037;-67
2022/12/24 09:00:56;;;;;;;5.85;1.17;;;11.20;99.90;;;;;;5053802;28;20075;-67
2022/12/24 09:03:22;;;;;;;4.18;1.10;;;11.20;99.90;;;;;;5054197;28;20029;-67
2022/12/24 09:05:48;;;;;;;4.30;1.35;;;11.20;99.90;;;;;;5053514;28;20040;-66
2022/12/24 09:08:13;;;;;;;3.53;1.27;;;11.20;99.90;;;;;;5054222;28;20124;-66
2022/12/24 09:10:39;;;;;;;3.28;1.00;;;11.20;99.90;;;;;;5053727;28;20052;-67
2022/12/24 09:13:05;;;;;;;3.22;1.10;;;11.30;99.90;;;;;;5054057;28;20158;-66
2022/12/24 09:15:31;;;;;;;5.28;1.25;;;11.30;99.90;;;;;;5054018;28;20350;-67
2022/12/24 09:17:56;;;;;;;2.28;1.17;;;11.30;99.90;;;;;;5053557;28;20421;-67
2022/12/24 09:20:22;;;;;;;5.60;1.05;;;11.30;99.90;;;;;;5053790;28;20040;-67
2022/12/24 09:22:48;;;;;;;2.45;1.20;;;11.30;99.90;;;;;;5053262;28;20065;-67
2022/12/24 09:25:13;;;;;;;2.13;0.90;;;11.40;99.90;;;;;;5053487;28;20036;-67
2022/12/24 09:27:39;;;;;;;4.10;0.90;;;11.40;99.90;;;;;;5053538;28;20036;-67
2022/12/24 09:30:06;;;;;;;3.05;1.20;;;11.40;99.90;;;;;;5053770;28;20053;-67
2022/12/24 09:32:33;;;;;;;1.38;0.90;;;11.50;99.90;;;;;;5053573;28;20025;-66
2022/12/24 09:34:59;;;;;;;1.83;1.08;;;11.50;99.90;;;;;;5053078;28;20036;-66
2022/12/24 09:37:25;;;;;;;4.30;1.27;;;11.50;99.90;;;;;;5053489;28;20052;-66
2022/12/24 09:39:50;;;;;;;4.22;1.13;;;11.60;99.90;;;;;;5052937;28;20120;-67
2022/12/24 09:42:25;;;;;;;3.75;1.25;;;11.60;99.90;;;;;;5053501;28;20021;-66
2022/12/24 09:44:59;;;;;;;2.22;1.20;;;11.70;99.90;;;;;;5052774;28;20025;-67
2022/12/24 09:47:40;;;;;;;7.38;1.30;;;11.70;99.90;;;;;;5053458;28;20025;-67
2022/12/24 09:50:23;;;;;;;2.50;0.90;;;11.80;99.90;;;;;;5053320;28;20027;-66
2022/12/24 09:52:51;;;;;;;3.22;1.20;;;11.80;99.90;;;;;;5052944;28;20040;-67
2022/12/24 09:55:20;;;;;;;4.72;1.30;;;11.80;99.90;;;;;;5053292;28;20017;-67
2022/12/24 09:57:49;;;;;;;2.95;0.90;;;11.90;99.90;;;;;;5052827;28;20031;-67
2022/12/24 10:00:27;;;;;;;2.80;1.02;;;11.90;99.70;;;;;;5053172;28;20086;-67
2022/12/24 10:02:53;;;;;;;3.10;0.93;;;12.00;99.90;;;;;;5052773;28;20105;-67
2022/12/24 10:05:38;;;;;;;3.35;1.13;;;12.10;99.60;;;;;;5053060;28;20108;-67
2022/12/24 10:08:26;;;;;;;3.08;1.25;;;12.20;99.20;;;;;;5052770;28;20025;-67
2022/12/24 10:11:05;;;;;;;3.97;1.60;;;12.40;97.70;;;;;;5052587;28;20029;-67
2022/12/24 10:13:46;;;;;;;3.70;1.20;;;12.50;96.40;;;;;;5053031;28;20021;-66
2022/12/24 10:16:38;;;;;;;3.33;1.13;;;12.70;95.90;;;;;;5052620;28;20048;-68
2022/12/24 10:19:43;;;;;;;4.18;1.27;;;12.80;95.70;;;;;;5052034;28;20490;-67
2022/12/24 10:22:14;;;;;;;3.85;1.25;;;12.90;95.10;;;;;;5053001;28;20091;-67
2022/12/24 10:24:47;;;;;;;2.08;0.95;;;12.90;94.70;;;;;;5052908;28;20052;-67
2022/12/24 10:27:14;;;;;;;2.83;1.10;;;13.00;94.70;;;;;;5052415;28;20053;-67
2022/12/24 10:29:46;;;;;;;5.53;1.27;;;13.10;93.80;;;;;;5052717;28;20040;-67
2022/12/24 10:32:20;;;;;;;3.50;1.20;;;13.20;93.70;;;;;;5052655;28;20033;-67
2022/12/24 10:34:56;;;;;;;4.53;1.27;;;13.30;93.60;;;;;;5052296;28;20060;-68
2022/12/24 10:37:24;;;;;;;3.40;1.05;;;13.40;93.20;;;;;;5052435;28;20049;-67
2022/12/24 10:39:51;;;;;;;2.88;1.35;;;13.50;93.00;;;;;;5052047;28;20036;-67
2022/12/24 10:42:19;;;;;;;4.43;1.50;;;13.70;92.70;;;;;;5052409;28;20108;-66
2022/12/24 10:44:49;;;;;;;5.55;1.40;;;13.80;92.50;;;;;;5052539;28;20025;-66
2022/12/24 10:47:16;;;;;;;7.00;1.48;;;14.00;90.80;;;;;;5052356;28;20115;-66
2022/12/24 10:49:59;;;;;;;7.20;1.45;;;14.10;89.20;;;;;;5052566;28;20040;-65
2022/12/24 10:52:31;;;;;;;8.95;1.52;;;14.20;88.50;;;;;;5049983;28;20028;-66
2022/12/24 10:55:17;;;;;;;5.38;1.80;;;14.30;87.70;;;;;;5052056;28;20029;-67
2022/12/24 10:57:44;;;;;;;3.08;1.02;;;14.40;87.80;;;;;;5048429;28;20048;-67
2022/12/24 11:00:21;;;;;;;5.00;1.50;;;14.40;86.10;;;;;;5051952;28;20037;-66
2022/12/24 11:02:48;;;;;;;5.07;1.77;;;14.50;85.80;;;;;;5052007;28;20021;-67
2022/12/24 11:05:34;;;;;;;2.92;1.30;;;14.50;84.60;;;;;;5052177;28;20116;-66
2022/12/24 11:08:16;;;;;;;6.68;1.90;;;14.40;84.40;;;;;;5051591;28;20385;-66
2022/12/24 11:10:52;;;;;;;5.25;1.83;;;14.50;85.00;;;;;;5052314;28;20028;-67
2022/12/24 11:13:22;;;;;;;6.38;1.48;;;14.60;84.70;;;;;;5052265;28;20033;-67
2022/12/24 11:15:58;;;;;;;4.20;1.50;;;14.60;83.90;;;;;;5051804;28;20362;-65
2022/12/24 11:18:24;;;;;;;4.80;1.33;;;14.60;83.90;;;;;;5052405;28;20507;-66
2022/12/24 11:20:52;;;;;;;5.90;1.50;;;14.70;83.90;;;;;;5051650;28;20029;-66
2022/12/24 11:23:18;;;;;;;4.68;1.33;;;14.70;83.40;;;;;;5051829;28;20690;-66
2022/12/24 11:25:49;;;;;;;4.95;1.83;;;14.70;83.10;;;;;;5051957;28;20040;-65
2022/12/24 11:28:20;;;;;;;;;;;14.80;81.80;;;;;;5052311;28;20074;-66
2022/12/24 11:30:57;;;;;;;;;;;14.80;80.90;;;;;;5052301;28;19912;-66
2022/12/24 11:33:23;;;;;;;3.35;1.42;;;14.80;80.60;;;;;;5051958;28;20350;-67
2022/12/24 11:35:55;;;;;;;5.60;1.40;;;14.80;80.90;;;;;;5051487;28;20074;-69
2022/12/24 11:38:26;;;;;;;4.20;1.40;;;14.80;79.70;;;;;;5051913;28;20045;-67
2022/12/24 11:41:10;;;;;;;5.53;1.55;;;14.70;79.00;;;;;;5051600;28;20401;-67
2022/12/24 11:43:49;;;;;;;7.35;1.30;;;14.70;79.80;;;;;;5051810;28;20109;-66
2022/12/24 11:46:21;;;;;;;5.50;1.42;;;14.60;80.40;;;;;;5052099;28;20076;-66
2022/12/24 11:48:48;;;;;;;5.93;1.88;;;14.40;79.20;;;;;;5051463;28;20494;-66
2022/12/24 11:51:26;;;;;;;4.15;1.13;;;14.30;79.80;;;;;;5051148;28;20513;-66
2022/12/24 11:54:13;;;;;;;3.38;1.55;;;14.20;81.20;;;;;;5051445;28;20025;-67
2022/12/24 11:56:52;;;;;;;4.70;1.33;;;14.00;82.10;;;;;;5051706;28;20082;-66
2022/12/24 11:59:26;;;;;;;5.28;1.35;;;13.80;83.50;;;;;;5054354;28;20033;-66
2022/12/24 12:02:01;;;;;;;7.43;1.45;;;13.70;85.00;;;;;;5054695;28;20466;-65
2022/12/24 12:04:33;;;;;;;6.90;1.88;;;13.50;86.50;;;;;;5055291;28;20029;-66
2022/12/24 12:07:21;;;;;;;5.32;1.50;;;13.30;87.80;;;;;;5054657;28;20381;-67
2022/12/24 12:09:49;;;;;;;4.35;1.67;;;13.20;89.40;;;;;;5055246;28;20418;-66
2022/12/24 12:12:21;;;;;;;7.53;1.77;;;13.20;90.10;;;;;;5054936;28;20036;-67
2022/12/24 12:15:11;;;;;;;5.40;1.40;;;13.10;90.30;;;;;;5055218;28;20028;-66
2022/12/24 12:17:39;;;;;;;6.85;1.70;;;13.00;90.60;;;;;;5055042;28;20418;-67
2022/12/24 12:20:27;;;;;;;5.03;1.48;;;12.90;90.70;;;;;;5054605;28;20420;-66
2022/12/24 12:23:12;;;;;;;8.52;2.17;;;12.80;91.30;;;;;;5054341;28;20029;-66
2022/12/24 12:26:00;;;;;;;3.72;1.90;;;12.80;91.50;;;;;;5054217;28;20067;-66
2022/12/24 12:28:51;;;;;;;5.97;2.10;;;12.70;91.80;;;;;;5054436;28;20029;-67
2022/12/24 12:31:37;;;;;;;6.22;1.40;;;12.60;92.10;;;;;;5054522;28;20033;-67
2022/12/24 12:34:08;;;;;;;4.25;1.58;;;12.60;92.40;;;;;;5054487;28;20043;-67
2022/12/24 12:36:42;;;;;;;4.38;1.25;;;12.50;92.40;;;;;;5054907;28;20455;-67
2022/12/24 12:39:10;;;;;;;3.80;1.10;;;12.50;92.60;;;;;;5054147;28;20057;-67
2022/12/24 12:41:44;;;;;;;5.53;1.30;;;12.40;93.00;;;;;;5054646;28;20029;-67
2022/12/24 12:44:29;;;;;;;3.15;1.52;;;12.30;93.30;;;;;;5053740;28;20108;-67
2022/12/24 12:47:03;;;;;;;2.92;1.30;;;12.30;93.60;;;;;;5054163;28;20040;-68
2022/12/24 12:50:06;;;;;;;6.10;1.50;;;12.30;93.70;;;;;;5054440;28;20033;-66
2022/12/24 12:52:35;;;;;;;4.22;1.33;;;12.40;93.60;;;;;;5054377;28;20017;-67
2022/12/24 12:55:00;;;;;;;2.80;1.20;;;12.40;93.50;;;;;;5053607;28;20478;-67
2022/12/24 12:57:31;;;;;;;3.05;0.98;;;12.40;93.50;;;;;;5053934;28;20033;-66
2022/12/24 13:00:05;;;;;;;4.15;1.00;;;12.50;93.20;;;;;;5054009;28;20526;-66
2022/12/24 13:02:54;;;;;;;1.58;0.90;;;12.50;92.30;;;;;;5053858;28;20058;-67
2022/12/24 13:05:35;;;;;;;2.63;0.70;;;12.50;91.80;;;;;;5053981;28;20029;-66
2022/12/24 13:08:22;;;;;;;3.42;0.90;;;12.50;91.90;;;;;;5053761;28;20032;-66
2022/12/24 13:10:52;;;;;;;1.52;0.95;;;12.50;92.00;;;;;;5054168;28;20032;-66